13°C Temp
10°C Dewpoint
82% Humidity
Temperature
14 KM/H
9 MPH
8 KTS
200°
South South
West

Wind Speed
Mostly Cloudy
Conditions
Pressure 1011.82 (hPa) - 29.88 (in)
Visibility 9.0 (mi) - 14.5 (km)

Current Conditions
CYZE
Location 50(km)
Metar :CYZE 201900Z AUTO 20008KT 9SM BKN048 OVC055 13/10 A2988 RMK SLP122
Sun 20th October 15:00 pm

Airport
  Metar Aviation API Data Provided by https://www.checkwx.com/ PHP scripts by weather34.com ©2019